createdAt,value
2023-04-02T00:02:32.663Z,14.38
2023-04-02T00:05:51.136Z,14.37
2023-04-02T00:08:56.383Z,14.38
2023-04-02T00:12:00.519Z,14.38
2023-04-02T00:15:02.395Z,14.38
2023-04-02T00:18:18.354Z,14.39
2023-04-02T00:21:28.574Z,14.39
2023-04-02T00:24:30.309Z,14.39
2023-04-02T00:27:35.192Z,14.39
2023-04-02T00:30:37.361Z,14.40
2023-04-02T00:33:42.804Z,14.39
2023-04-02T00:36:47.689Z,14.37
2023-04-02T00:39:51.780Z,14.31
2023-04-02T00:43:07.011Z,14.26
2023-04-02T00:46:14.262Z,14.20
2023-04-02T00:49:30.074Z,14.14
2023-04-02T00:52:33.065Z,14.07
2023-04-02T00:55:40.132Z,13.99
2023-04-02T00:58:43.532Z,13.93
2023-04-02T01:01:45.432Z,13.88
2023-04-02T01:05:05.635Z,13.82
2023-04-02T01:08:09.681Z,13.75
2023-04-02T01:11:40.168Z,13.70
2023-04-02T01:14:53.946Z,13.62
2023-04-02T01:17:58.641Z,13.52
2023-04-02T01:21:31.648Z,13.41
2023-04-02T01:24:34.592Z,13.27
2023-04-02T01:27:42.587Z,13.17
2023-04-02T01:30:45.276Z,13.07
2023-04-02T01:33:48.180Z,12.98
2023-04-02T01:37:07.141Z,12.91
2023-04-02T01:40:54.718Z,12.83
2023-04-02T01:44:03.537Z,12.73
2023-04-02T01:47:13.146Z,12.69
2023-04-02T01:50:26.392Z,12.65
2023-04-02T01:53:29.746Z,12.62
2023-04-02T01:56:43.744Z,12.58
2023-04-02T01:59:49.985Z,12.52
2023-04-02T02:02:52.805Z,12.47
2023-04-02T02:06:04.603Z,12.41
2023-04-02T02:09:07.551Z,12.32
2023-04-02T02:12:16.123Z,12.21
2023-04-02T02:15:24.397Z,12.12
2023-04-02T02:18:27.637Z,12.05
2023-04-02T02:21:32.096Z,11.99
2023-04-02T02:25:03.013Z,11.96
2023-04-02T02:28:24.211Z,11.91
2023-04-02T02:31:33.510Z,11.88
2023-04-02T02:34:41.754Z,11.86
2023-04-02T02:37:47.112Z,11.84
2023-04-02T02:41:01.009Z,11.84
2023-04-02T02:44:11.904Z,11.87
2023-04-02T02:47:21.274Z,11.92
2023-04-02T02:50:31.310Z,11.99
2023-04-02T02:53:33.701Z,12.06
2023-04-02T02:56:39.677Z,12.12
2023-04-02T02:59:45.042Z,12.16
2023-04-02T03:02:51.380Z,12.20
2023-04-02T03:05:56.697Z,12.22
2023-04-02T03:09:13.617Z,12.24
2023-04-02T03:12:58.148Z,12.23
2023-04-02T03:16:15.238Z,12.23
2023-04-02T03:19:49.720Z,12.21
2023-04-02T03:23:22.096Z,12.18
2023-04-02T03:26:34.391Z,12.12
2023-04-02T03:30:32.412Z,12.09
2023-04-02T03:33:39.213Z,12.08
2023-04-02T03:36:50.247Z,12.07
2023-04-02T03:40:04.654Z,12.07
2023-04-02T03:43:23.355Z,12.08
2023-04-02T03:46:42.571Z,12.08
2023-04-02T03:49:50.401Z,12.08
2023-04-02T03:52:52.406Z,12.06
2023-04-02T03:55:54.946Z,12.07
2023-04-02T03:59:24.729Z,12.06
2023-04-02T04:02:35.017Z,12.05
2023-04-02T04:05:48.347Z,12.04
2023-04-02T04:08:54.837Z,12.04
2023-04-02T04:12:26.107Z,12.06
2023-04-02T04:15:47.594Z,12.10
2023-04-02T04:19:04.026Z,12.15
2023-04-02T04:22:15.693Z,12.20
2023-04-02T04:25:25.665Z,12.25
2023-04-02T04:28:39.249Z,12.29
2023-04-02T04:32:04.800Z,12.32
2023-04-02T04:35:23.966Z,12.36
2023-04-02T04:38:32.837Z,12.41
2023-04-02T04:41:46.892Z,12.45
2023-04-02T04:44:56.330Z,12.48
2023-04-02T04:48:22.840Z,12.52
2023-04-02T04:51:25.883Z,12.56
2023-04-02T04:54:38.274Z,12.60
2023-04-02T04:57:42.102Z,12.53
2023-04-02T05:01:39.895Z,12.35
2023-04-02T05:04:46.848Z,12.20
2023-04-02T05:07:52.556Z,12.18
2023-04-02T05:11:02.358Z,12.18
2023-04-02T05:14:09.163Z,12.18
2023-04-02T05:17:19.434Z,12.17
2023-04-02T05:20:28.175Z,12.16
2023-04-02T05:23:36.220Z,12.11
2023-04-02T05:26:46.045Z,12.09
2023-04-02T05:29:53.764Z,12.09
2023-04-02T05:33:00.734Z,12.08
2023-04-02T05:36:20.135Z,12.05
2023-04-02T05:39:25.835Z,12.00
2023-04-02T05:42:32.065Z,11.94
2023-04-02T05:45:54.233Z,11.85
2023-04-02T05:48:58.766Z,11.78
2023-04-02T05:52:03.405Z,11.75
2023-04-02T05:55:12.391Z,11.71
2023-04-02T05:58:58.112Z,11.68
2023-04-02T06:02:25.187Z,11.66
2023-04-02T06:05:34.314Z,11.64
2023-04-02T06:08:59.088Z,11.63
2023-04-02T06:12:10.475Z,11.60
2023-04-02T06:15:18.175Z,11.60
2023-04-02T06:18:41.595Z,11.60
2023-04-02T06:21:55.360Z,11.60
2023-04-02T06:25:02.929Z,11.60
2023-04-02T06:28:21.864Z,11.58
2023-04-02T06:31:47.357Z,11.60
2023-04-02T06:34:50.963Z,11.62
2023-04-02T06:37:57.859Z,11.65
2023-04-02T06:41:13.252Z,11.70
2023-04-02T06:44:41.418Z,11.77
2023-04-02T06:48:03.155Z,11.85
2023-04-02T06:51:18.547Z,11.94
2023-04-02T06:54:21.180Z,12.02
2023-04-02T06:57:27.543Z,12.11
2023-04-02T07:00:42.034Z,12.20
2023-04-02T07:03:49.548Z,12.30
2023-04-02T07:06:57.094Z,12.39
2023-04-02T07:10:01.649Z,12.47
2023-04-02T07:13:16.085Z,12.57
2023-04-02T07:16:30.732Z,12.67
2023-04-02T07:19:32.756Z,12.75
2023-04-02T07:22:34.968Z,12.85
2023-04-02T07:25:38.022Z,12.94
2023-04-02T07:28:39.838Z,13.04
2023-04-02T07:31:41.697Z,13.13
2023-04-02T07:34:43.838Z,13.19
2023-04-02T07:37:45.823Z,13.25
2023-04-02T07:40:49.468Z,13.29
2023-04-02T07:43:51.236Z,13.33
2023-04-02T07:46:53.151Z,13.36
2023-04-02T07:49:54.876Z,13.40
2023-04-02T07:53:12.348Z,13.46
2023-04-02T07:56:16.253Z,13.51
2023-04-02T07:59:18.066Z,13.58
2023-04-02T08:02:23.718Z,13.65
2023-04-02T08:05:26.479Z,13.73
2023-04-02T08:08:28.386Z,13.77
2023-04-02T08:11:31.813Z,13.82
2023-04-02T08:14:33.717Z,13.85
2023-04-02T08:17:35.851Z,13.87
2023-04-02T08:20:38.192Z,13.87
2023-04-02T08:23:48.995Z,13.88
2023-04-02T08:26:51.695Z,13.89
2023-04-02T08:29:53.548Z,13.88
2023-04-02T08:32:55.299Z,13.85
2023-04-02T08:35:57.107Z,13.81
2023-04-02T08:38:58.813Z,13.75
2023-04-02T08:42:04.567Z,13.69
2023-04-02T08:45:37.105Z,13.59
2023-04-02T08:48:42.686Z,13.47
2023-04-02T08:51:45.435Z,13.34
2023-04-02T08:54:47.347Z,13.24
2023-04-02T08:58:10.212Z,13.11
2023-04-02T09:01:24.962Z,12.97
2023-04-02T09:04:29.894Z,12.85
2023-04-02T09:07:46.837Z,12.74
2023-04-02T09:11:08.749Z,12.59
2023-04-02T09:14:29.062Z,12.46
2023-04-02T09:17:36.920Z,12.41
2023-04-02T09:20:52.156Z,12.39
2023-04-02T09:24:02.834Z,12.40
2023-04-02T09:27:17.502Z,12.43
2023-04-02T09:30:33.114Z,12.50
2023-04-02T09:33:47.149Z,12.60
2023-04-02T09:37:08.549Z,12.73
2023-04-02T09:40:24.944Z,12.94
2023-04-02T09:43:44.654Z,13.13
2023-04-02T09:46:53.066Z,13.28
2023-04-02T09:49:55.666Z,13.42
2023-04-02T09:52:58.159Z,13.55
2023-04-02T09:56:08.578Z,13.67
2023-04-02T09:59:15.701Z,13.83
2023-04-02T10:02:28.988Z,14.00
2023-04-02T10:05:40.538Z,14.18
2023-04-02T10:08:45.024Z,14.34
2023-04-02T10:11:56.582Z,14.53
2023-04-02T10:15:01.382Z,14.72
2023-04-02T10:18:17.432Z,14.92
2023-04-02T10:21:23.834Z,15.09
2023-04-02T10:24:27.730Z,15.20
2023-04-02T10:27:34.786Z,15.27
2023-04-02T10:30:56.868Z,15.33
2023-04-02T10:34:04.674Z,15.37
2023-04-02T10:37:38.872Z,15.50
2023-04-02T10:40:46.565Z,15.71
2023-04-02T10:43:51.440Z,15.94
2023-04-02T10:47:14.064Z,16.14
2023-04-02T10:50:38.263Z,16.40
2023-04-02T10:53:57.656Z,16.71
2023-04-02T10:57:33.692Z,16.98
2023-04-02T11:00:37.995Z,17.30
2023-04-02T11:03:50.836Z,17.56
2023-04-02T11:07:14.084Z,17.86
2023-04-02T11:10:19.997Z,18.27
2023-04-02T11:13:24.749Z,18.58
2023-04-02T11:16:27.787Z,18.87
2023-04-02T11:19:31.978Z,19.15
2023-04-02T11:22:33.662Z,19.49
2023-04-02T11:25:38.566Z,19.85
2023-04-02T11:28:41.269Z,20.10
2023-04-02T11:31:43.175Z,20.17
2023-04-02T11:34:44.916Z,20.07
2023-04-02T11:37:46.661Z,19.90
2023-04-02T11:40:48.488Z,19.70
2023-04-02T11:43:51.724Z,19.36
2023-04-02T11:47:26.717Z,18.74
2023-04-02T11:50:28.656Z,18.07
2023-04-02T11:53:34.992Z,17.51
2023-04-02T11:56:45.050Z,16.79
2023-04-02T12:00:13.737Z,16.08
2023-04-02T12:03:29.792Z,15.16
2023-04-02T12:07:16.592Z,14.35
2023-04-02T12:10:20.746Z,13.73
2023-04-02T12:13:40.814Z,13.38
2023-04-02T12:16:42.913Z,13.21
2023-04-02T12:20:09.649Z,13.19
2023-04-02T12:23:24.613Z,13.28
2023-04-02T12:26:37.385Z,13.49
2023-04-02T12:29:39.324Z,13.76
2023-04-02T12:32:41.102Z,14.07
2023-04-02T12:35:57.634Z,14.41
2023-04-02T12:38:59.525Z,14.75
2023-04-02T12:42:01.450Z,15.04
2023-04-02T12:45:05.703Z,15.37
2023-04-02T12:48:10.114Z,15.70
2023-04-02T12:51:14.322Z,16.05
2023-04-02T12:54:17.750Z,16.37
2023-04-02T12:57:20.684Z,16.63
2023-04-02T13:00:23.053Z,16.79
2023-04-02T13:03:26.613Z,16.92
2023-04-02T13:06:41.413Z,17.04
2023-04-02T13:09:47.327Z,17.15
2023-04-02T13:12:55.946Z,17.22
2023-04-02T13:16:03.730Z,17.34
2023-04-02T13:19:19.183Z,17.35
2023-04-02T13:22:33.495Z,17.37
2023-04-02T13:25:36.473Z,17.44
2023-04-02T13:28:38.376Z,17.53
2023-04-02T13:31:44.429Z,17.64
2023-04-02T13:34:46.677Z,17.77
2023-04-02T13:37:49.029Z,17.94
2023-04-02T13:40:51.553Z,18.09
2023-04-02T13:43:55.952Z,18.25
2023-04-02T13:46:58.715Z,18.40
2023-04-02T13:50:01.102Z,18.56
2023-04-02T13:53:10.470Z,18.80
2023-04-02T13:56:12.663Z,19.05
2023-04-02T13:59:14.616Z,19.16
2023-04-02T14:02:18.951Z,19.10
2023-04-02T14:05:43.915Z,19.13
2023-04-02T14:09:18.330Z,19.14
2023-04-02T14:12:33.445Z,19.25
2023-04-02T14:15:50.826Z,19.42
2023-04-02T14:19:02.241Z,19.66
2023-04-02T14:22:26.073Z,19.78
2023-04-02T14:26:01.203Z,19.96
2023-04-02T14:29:16.330Z,20.42
2023-04-02T14:32:18.093Z,20.68
2023-04-02T14:35:32.104Z,20.88
2023-04-02T14:38:42.654Z,21.07
2023-04-02T14:41:58.600Z,21.27
2023-04-02T14:45:22.562Z,21.29
2023-04-02T14:48:30.514Z,21.26
2023-04-02T14:51:34.955Z,21.17
2023-04-02T14:55:04.815Z,21.03
2023-04-02T14:58:16.269Z,20.81
2023-04-02T15:01:25.819Z,20.71
2023-04-02T15:04:35.575Z,20.63
2023-04-02T15:07:43.183Z,20.54
2023-04-02T15:11:22.652Z,20.50
2023-04-02T15:14:35.644Z,20.47
2023-04-02T15:21:49.780Z,20.54
2023-04-02T15:25:24.708Z,20.49
2023-04-02T15:28:34.529Z,20.45
2023-04-02T15:31:36.413Z,20.43
2023-04-02T15:34:57.356Z,20.43
2023-04-02T15:38:27.159Z,20.46
2023-04-02T15:41:32.547Z,20.52
2023-04-02T15:44:34.180Z,20.61
2023-04-02T15:48:01.007Z,20.58
2023-04-02T15:51:13.536Z,20.48
2023-04-02T15:54:33.742Z,20.35
2023-04-02T15:58:17.272Z,20.29
2023-04-02T16:01:41.017Z,20.27
2023-04-02T16:04:48.857Z,20.23
2023-04-02T16:08:30.133Z,20.15
2023-04-02T16:11:31.978Z,20.04
2023-04-02T16:14:39.306Z,19.94
2023-04-02T16:17:45.861Z,19.90
2023-04-02T16:20:51.496Z,19.89
2023-04-02T16:23:55.503Z,19.85
2023-04-02T16:27:27.588Z,19.81
2023-04-02T16:30:29.857Z,19.71
2023-04-02T16:33:48.700Z,19.62
2023-04-02T16:37:10.278Z,19.77
2023-04-02T16:40:18.725Z,19.98
2023-04-02T16:43:31.408Z,19.95
2023-04-02T16:46:41.584Z,19.98
2023-04-02T16:49:58.035Z,19.98
2023-04-02T16:53:31.128Z,19.99
2023-04-02T16:56:42.329Z,19.95
2023-04-02T16:59:59.726Z,19.97
2023-04-02T17:03:18.114Z,20.02
2023-04-02T17:06:35.994Z,20.08
2023-04-02T17:09:41.569Z,20.10
2023-04-02T17:12:48.629Z,20.05
2023-04-02T17:16:17.985Z,19.98
2023-04-02T17:19:21.048Z,19.84
2023-04-02T17:22:36.143Z,19.70
2023-04-02T17:25:44.709Z,19.53
2023-04-02T17:28:48.103Z,19.39
2023-04-02T17:31:50.715Z,19.22
2023-04-02T17:34:52.508Z,19.00
2023-04-02T17:38:03.154Z,18.79
2023-04-02T17:41:32.200Z,18.62
2023-04-02T17:44:58.903Z,18.43
2023-04-02T17:48:33.792Z,18.22
2023-04-02T17:51:44.855Z,17.97
2023-04-02T17:55:37.426Z,17.70
2023-04-02T17:58:53.833Z,17.38
2023-04-02T18:02:20.362Z,17.09
2023-04-02T18:06:06.657Z,16.80
2023-04-02T18:09:45.388Z,16.54
2023-04-02T18:12:58.197Z,16.31
2023-04-02T18:16:25.402Z,16.13
2023-04-02T18:19:40.506Z,15.95
2023-04-02T18:23:08.933Z,15.76
2023-04-02T18:26:38.035Z,15.58
2023-04-02T18:30:14.629Z,15.37
2023-04-02T18:33:34.725Z,15.15
2023-04-02T18:37:15.475Z,14.85
2023-04-02T18:40:30.491Z,14.58
2023-04-02T18:43:43.516Z,14.38
2023-04-02T18:46:59.376Z,14.19
2023-04-02T18:50:17.625Z,14.01
2023-04-02T18:53:27.812Z,13.86
2023-04-02T18:56:32.913Z,13.75
2023-04-02T18:59:56.125Z,13.67
2023-04-02T19:03:44.096Z,13.59
2023-04-02T19:07:16.399Z,13.50
2023-04-02T19:10:48.510Z,13.47
2023-04-02T19:14:17.812Z,13.40
2023-04-02T19:17:29.369Z,13.33
2023-04-02T19:20:48.017Z,13.26
2023-04-02T19:24:15.333Z,13.18
2023-04-02T19:27:52.104Z,13.08
2023-04-02T19:31:36.839Z,13.00
2023-04-02T19:35:35.436Z,12.94
2023-04-02T19:39:23.838Z,12.87
2023-04-02T19:42:49.977Z,12.81
2023-04-02T19:46:06.390Z,12.80
2023-04-02T19:49:30.772Z,12.80
2023-04-02T19:52:33.176Z,12.78
2023-04-02T19:55:40.552Z,12.73
2023-04-02T19:59:18.111Z,12.70
2023-04-02T20:02:20.782Z,12.72
2023-04-02T20:05:25.149Z,12.74
2023-04-02T20:08:30.834Z,12.75
2023-04-02T20:11:40.798Z,12.75
2023-04-02T20:14:46.020Z,12.77
2023-04-02T20:17:48.325Z,12.80
2023-04-02T20:20:51.881Z,12.80
2023-04-02T20:24:04.068Z,12.77
2023-04-02T20:27:08.518Z,12.72
2023-04-02T20:30:17.545Z,12.70
2023-04-02T20:33:25.491Z,12.68
2023-04-02T20:36:30.270Z,12.67
2023-04-02T20:39:39.423Z,12.65
2023-04-02T20:42:41.753Z,12.63
2023-04-02T20:45:55.756Z,12.60
2023-04-02T20:49:05.610Z,12.58
2023-04-02T20:52:10.315Z,12.56
2023-04-02T20:55:17.251Z,12.54
2023-04-02T20:58:20.189Z,12.52
2023-04-02T21:01:39.818Z,12.49
2023-04-02T21:04:42.032Z,12.47
2023-04-02T21:07:48.635Z,12.36
2023-04-02T21:10:50.841Z,12.24
2023-04-02T21:13:55.997Z,12.18
2023-04-02T21:17:00.943Z,12.17
2023-04-02T21:20:03.468Z,12.18
2023-04-02T21:23:05.641Z,12.19
2023-04-02T21:26:08.264Z,12.18
2023-04-02T21:29:11.609Z,12.19
2023-04-02T21:32:21.240Z,12.20
2023-04-02T21:35:34.500Z,12.21
2023-04-02T21:38:38.167Z,12.23
2023-04-02T21:41:41.989Z,12.25
2023-04-02T21:44:46.689Z,12.30
2023-04-02T21:47:48.462Z,12.36
2023-04-02T21:50:53.145Z,12.41
2023-04-02T21:54:15.112Z,12.46
2023-04-02T21:57:26.324Z,12.48
2023-04-02T22:00:30.360Z,12.49
2023-04-02T22:03:32.458Z,12.48
2023-04-02T22:06:41.579Z,12.40
2023-04-02T22:09:46.468Z,12.31
2023-04-02T22:12:50.672Z,12.23
2023-04-02T22:19:20.890Z,12.07
2023-04-02T22:22:25.264Z,11.99
2023-04-02T22:25:26.950Z,11.91
2023-04-02T22:28:29.452Z,11.84
2023-04-02T22:31:44.861Z,11.75
2023-04-02T22:34:54.025Z,11.68
2023-04-02T22:37:58.554Z,11.60
2023-04-02T22:41:15.718Z,11.51
2023-04-02T22:44:46.294Z,11.41
2023-04-02T22:47:53.998Z,11.30
2023-04-02T22:51:05.332Z,11.20
2023-04-02T22:54:16.071Z,11.10
2023-04-02T22:57:20.784Z,10.99
2023-04-02T23:00:35.211Z,10.86
2023-04-02T23:03:37.830Z,10.77
2023-04-02T23:06:51.620Z,10.70
2023-04-02T23:10:04.622Z,10.66
2023-04-02T23:13:30.733Z,10.62
2023-04-02T23:16:32.483Z,10.58
2023-04-02T23:19:42.167Z,10.55
2023-04-02T23:22:47.281Z,10.55
2023-04-02T23:25:49.014Z,10.55
2023-04-02T23:28:50.949Z,10.53
2023-04-02T23:31:52.992Z,10.37
2023-04-02T23:35:03.664Z,10.22
2023-04-02T23:38:16.663Z,10.08
2023-04-02T23:41:27.191Z,9.95
2023-04-02T23:44:39.328Z,9.84
2023-04-02T23:48:01.253Z,9.74
2023-04-02T23:51:32.395Z,9.67
2023-04-02T23:54:55.461Z,9.63
2023-04-02T23:58:06.333Z,9.61
